createdAt,value
2018-06-01T00:01:18.195Z,64.29
2018-06-01T00:03:45.570Z,64.59
2018-06-01T00:06:13.126Z,63.45
2018-06-01T00:08:40.518Z,62.82
2018-06-01T00:11:07.912Z,64.32
2018-06-01T00:13:35.305Z,65.20
2018-06-01T00:16:02.694Z,66.11
2018-06-01T00:18:30.257Z,67.68
2018-06-01T00:20:57.667Z,70.29
2018-06-01T00:23:25.352Z,70.64
2018-06-01T00:25:52.739Z,68.54
2018-06-01T00:28:20.729Z,71.95
2018-06-01T00:30:48.229Z,74.07
2018-06-01T00:33:15.644Z,74.21
2018-06-01T00:35:43.036Z,74.12
2018-06-01T00:38:10.426Z,76.63
2018-06-01T00:40:37.820Z,77.69
2018-06-01T00:43:05.199Z,77.19
2018-06-01T00:45:32.609Z,78.01
2018-06-01T00:47:59.994Z,76.39
2018-06-01T00:50:27.395Z,77.59
2018-06-01T00:52:54.791Z,77.53
2018-06-01T00:55:26.174Z,78.30
2018-06-01T00:57:53.554Z,78.20
2018-06-01T01:00:20.996Z,79.74
2018-06-01T01:02:48.392Z,78.11
2018-06-01T01:05:15.768Z,80.70
2018-06-01T01:07:43.162Z,80.37
2018-06-01T01:10:10.553Z,80.84
2018-06-01T01:12:37.945Z,81.36
2018-06-01T01:15:05.322Z,78.11
2018-06-01T01:17:32.756Z,82.56
2018-06-01T01:20:00.152Z,84.51
2018-06-01T01:22:27.555Z,83.80
2018-06-01T01:24:54.972Z,89.75
2018-06-01T01:27:22.369Z,96.81
2018-06-01T01:29:49.749Z,94.15
2018-06-01T01:32:17.148Z,92.00
2018-06-01T01:34:45.493Z,90.55
2018-06-01T01:37:12.895Z,90.66
2018-06-01T01:39:40.297Z,92.33
2018-06-01T01:42:07.679Z,93.28
2018-06-01T01:44:35.067Z,96.80
2018-06-01T01:47:02.456Z,98.24
2018-06-01T01:49:30.034Z,99.51
2018-06-01T01:51:57.470Z,99.42
2018-06-01T01:54:24.833Z,95.99
2018-06-01T01:56:52.223Z,96.50
2018-06-01T01:59:19.607Z,95.27
2018-06-01T02:01:47.001Z,93.58
2018-06-01T02:04:14.387Z,91.33
2018-06-01T02:06:41.786Z,91.98
2018-06-01T02:09:09.172Z,90.49
2018-06-01T02:11:36.571Z,91.32
2018-06-01T02:14:03.958Z,89.54
2018-06-01T02:16:31.352Z,91.46
2018-06-01T02:18:58.740Z,90.37
2018-06-01T02:21:26.145Z,88.64
2018-06-01T02:23:53.520Z,88.41
2018-06-01T02:26:20.910Z,88.05
2018-06-01T02:28:48.346Z,87.09
2018-06-01T02:31:16.696Z,86.70
2018-06-01T02:33:44.116Z,87.35
2018-06-01T02:36:11.508Z,88.78
2018-06-01T02:38:38.921Z,88.89
2018-06-01T02:41:06.305Z,85.71
2018-06-01T02:43:33.713Z,87.28
2018-06-01T02:46:01.084Z,85.38
2018-06-01T02:48:28.470Z,87.20
2018-06-01T02:50:55.864Z,86.38
2018-06-01T02:53:23.274Z,86.99
2018-06-01T02:55:50.664Z,86.58
2018-06-01T02:58:18.053Z,84.58
2018-06-01T03:00:45.816Z,85.49
2018-06-01T03:03:13.221Z,84.18
2018-06-01T03:05:40.609Z,84.97
2018-06-01T03:08:08.043Z,85.65
2018-06-01T03:10:35.431Z,86.12
2018-06-01T03:13:02.832Z,85.98
2018-06-01T03:15:30.239Z,84.61
2018-06-01T03:17:57.659Z,84.82
2018-06-01T03:20:25.060Z,85.56
2018-06-01T03:22:52.653Z,85.85
2018-06-01T03:25:20.060Z,84.61
2018-06-01T03:27:47.461Z,85.05
2018-06-01T03:30:14.863Z,85.78
2018-06-01T03:32:42.269Z,85.92
2018-06-01T03:35:09.655Z,85.05
2018-06-01T03:37:37.064Z,84.50
2018-06-01T03:40:04.439Z,85.22
2018-06-01T03:42:31.843Z,86.10
2018-06-01T03:44:59.227Z,85.46
2018-06-01T03:47:26.733Z,84.98
2018-06-01T03:49:54.110Z,84.98
2018-06-01T03:52:21.539Z,84.93
2018-06-01T03:54:48.919Z,85.83
2018-06-01T03:57:16.312Z,84.26
2018-06-01T03:59:43.691Z,84.51
2018-06-01T04:02:11.145Z,84.27
2018-06-01T04:04:38.493Z,85.26
2018-06-01T04:07:06.022Z,85.10
2018-06-01T04:09:33.419Z,84.07
2018-06-01T04:12:00.807Z,84.20
2018-06-01T04:14:28.195Z,83.76
2018-06-01T04:16:55.608Z,83.84
2018-06-01T04:19:22.977Z,83.20
2018-06-01T04:21:50.368Z,83.42
2018-06-01T04:24:17.769Z,84.22
2018-06-01T04:26:45.153Z,84.14
2018-06-01T04:29:12.545Z,84.73
2018-06-01T04:31:39.927Z,83.63
2018-06-01T04:34:07.323Z,84.08
2018-06-01T04:36:34.707Z,83.96
2018-06-01T04:39:02.204Z,84.73
2018-06-01T04:41:29.679Z,85.10
2018-06-01T04:43:57.071Z,85.38
2018-06-01T04:46:24.459Z,84.49
2018-06-01T04:48:51.854Z,84.29
2018-06-01T04:51:19.233Z,84.52
2018-06-01T04:53:46.630Z,84.82
2018-06-01T04:56:14.036Z,85.11
2018-06-01T04:58:41.409Z,84.24
2018-06-01T05:01:08.801Z,83.83
2018-06-01T05:03:36.183Z,84.52
2018-06-01T05:06:03.589Z,83.96
2018-06-01T05:08:30.957Z,84.23
2018-06-01T05:10:58.339Z,84.94
2018-06-01T05:13:25.729Z,84.02
2018-06-01T05:15:53.255Z,83.61
2018-06-01T05:18:20.641Z,83.53
2018-06-01T05:20:48.010Z,84.49
2018-06-01T05:23:16.430Z,83.16
2018-06-01T05:25:43.819Z,83.25
2018-06-01T05:28:11.206Z,83.17
2018-06-01T05:30:38.590Z,83.53
2018-06-01T05:33:06.003Z,83.51
2018-06-01T05:35:33.404Z,83.10
2018-06-01T05:38:00.759Z,83.14
2018-06-01T05:40:28.166Z,83.33
2018-06-01T05:42:55.544Z,82.29
2018-06-01T05:45:22.942Z,83.11
2018-06-01T05:47:50.485Z,82.28
2018-06-01T05:50:17.872Z,82.40
2018-06-01T05:52:45.253Z,82.92
2018-06-01T05:55:12.636Z,82.45
2018-06-01T05:57:40.020Z,82.59
2018-06-01T06:02:57.710Z,82.30
2018-06-01T06:05:25.091Z,82.32
2018-06-01T06:07:52.488Z,82.02
2018-06-01T06:10:19.873Z,82.03
2018-06-01T06:12:47.251Z,81.74
2018-06-01T06:15:14.718Z,80.15
2018-06-01T06:17:42.157Z,81.07
2018-06-01T06:20:09.492Z,80.68
2018-06-01T06:22:36.870Z,80.90
2018-06-01T06:25:04.256Z,80.23
2018-06-01T06:27:31.643Z,79.29
2018-06-01T06:29:59.023Z,79.84
2018-06-01T06:32:26.559Z,80.02
2018-06-01T06:34:53.948Z,79.07
2018-06-01T06:37:21.324Z,79.70
2018-06-01T06:39:48.902Z,79.25
2018-06-01T06:42:17.085Z,78.71
2018-06-01T06:44:44.484Z,80.69
2018-06-01T06:47:11.871Z,79.60
2018-06-01T06:49:40.170Z,79.01
2018-06-01T06:52:07.551Z,79.14
2018-06-01T06:54:34.951Z,79.21
2018-06-01T06:57:02.338Z,79.28
2018-06-01T06:59:29.725Z,78.87
2018-06-01T07:01:57.106Z,78.79
2018-06-01T07:04:24.496Z,79.66
2018-06-01T07:06:53.220Z,79.39
2018-06-01T07:09:20.611Z,78.91
2018-06-01T07:11:48.184Z,79.21
2018-06-01T07:14:15.567Z,78.95
2018-06-01T07:16:42.950Z,78.99
2018-06-01T07:19:10.341Z,79.23
2018-06-01T07:21:37.723Z,78.72
2018-06-01T07:24:05.115Z,79.67
2018-06-01T07:26:32.498Z,79.79
2018-06-01T07:28:59.884Z,79.45
2018-06-01T07:31:27.281Z,80.22
2018-06-01T07:33:54.842Z,79.44
2018-06-01T07:36:22.298Z,79.07
2018-06-01T07:38:49.692Z,79.00
2018-06-01T07:41:17.378Z,79.18
2018-06-01T07:43:44.779Z,78.88
2018-06-01T07:46:12.167Z,78.90
2018-06-01T07:48:39.544Z,79.30
2018-06-01T07:51:06.947Z,79.18
2018-06-01T07:53:34.315Z,79.53
2018-06-01T07:56:01.715Z,79.40
2018-06-01T07:58:29.091Z,78.88
2018-06-01T08:00:56.488Z,79.29
2018-06-01T08:03:23.881Z,78.63
2018-06-01T08:05:51.267Z,78.64
2018-06-01T08:08:18.657Z,78.59
2018-06-01T08:10:46.056Z,78.26
2018-06-01T08:13:13.468Z,77.84
2018-06-01T08:15:40.863Z,77.46
2018-06-01T08:18:08.243Z,77.29
2018-06-01T08:20:35.639Z,77.84
2018-06-01T08:23:03.024Z,77.81
2018-06-01T08:25:30.470Z,76.62
2018-06-01T08:27:57.844Z,76.83
2018-06-01T08:30:25.239Z,76.75
2018-06-01T08:32:52.624Z,76.78
2018-06-01T08:35:20.027Z,76.34
2018-06-01T08:37:47.458Z,75.48
2018-06-01T08:40:14.868Z,75.91
2018-06-01T08:42:42.255Z,75.53
2018-06-01T08:45:09.659Z,75.53
2018-06-01T08:47:37.029Z,77.09
2018-06-01T08:50:04.420Z,75.46
2018-06-01T08:52:31.819Z,74.82
2018-06-01T08:54:59.202Z,75.19
2018-06-01T08:57:26.587Z,74.45
2018-06-01T08:59:53.963Z,74.14
2018-06-01T09:02:21.372Z,73.07
2018-06-01T09:04:48.763Z,71.47
2018-06-01T09:07:16.153Z,70.89
2018-06-01T09:09:43.527Z,70.13
2018-06-01T09:12:10.931Z,70.43
2018-06-01T09:14:38.314Z,69.83
2018-06-01T09:17:05.706Z,68.77
2018-06-01T09:19:33.092Z,69.17
2018-06-01T09:22:00.484Z,69.12
2018-06-01T09:24:27.919Z,70.36
2018-06-01T09:26:55.324Z,71.18
2018-06-01T09:29:22.710Z,70.76
2018-06-01T09:31:50.097Z,69.64
2018-06-01T09:34:17.789Z,68.42
2018-06-01T09:36:45.164Z,69.40
2018-06-01T09:39:12.553Z,68.26
2018-06-01T09:41:39.926Z,68.39
2018-06-01T09:44:07.322Z,68.87
2018-06-01T09:46:34.707Z,69.24
2018-06-01T09:49:02.114Z,69.08
2018-06-01T09:51:29.464Z,68.35
2018-06-01T09:53:56.836Z,66.82
2018-06-01T09:56:24.227Z,66.70
2018-06-01T09:58:51.611Z,66.28
2018-06-01T10:01:24.572Z,66.96
2018-06-01T10:03:51.952Z,66.63
2018-06-01T10:06:19.350Z,67.32
2018-06-01T10:08:46.759Z,67.20
2018-06-01T10:11:14.152Z,66.91
2018-06-01T10:13:41.533Z,66.96
2018-06-01T10:16:08.932Z,67.08
2018-06-01T10:18:36.311Z,66.10
2018-06-01T10:21:03.788Z,66.40
2018-06-01T10:23:31.181Z,65.64
2018-06-01T10:25:58.580Z,65.21
2018-06-01T10:28:25.971Z,65.94
2018-06-01T10:30:53.676Z,65.99
2018-06-01T10:33:21.064Z,64.86
2018-06-01T10:35:48.456Z,64.08
2018-06-01T10:38:15.839Z,62.85
2018-06-01T10:40:43.220Z,61.90
2018-06-01T10:43:10.616Z,61.10
2018-06-01T10:45:38.007Z,60.53
2018-06-01T10:48:05.453Z,60.71
2018-06-01T10:50:32.791Z,60.71
2018-06-01T10:53:00.187Z,60.81
2018-06-01T10:55:27.666Z,60.11
2018-06-01T10:57:55.024Z,61.07
2018-06-01T11:00:22.420Z,61.97
2018-06-01T11:02:49.820Z,61.27
2018-06-01T11:05:17.218Z,61.36
2018-06-01T11:07:44.616Z,60.72
2018-06-01T11:10:12.006Z,59.77
2018-06-01T11:12:39.468Z,59.78
2018-06-01T11:15:06.870Z,58.66
2018-06-01T11:17:34.261Z,58.46
2018-06-01T11:20:01.649Z,58.62
2018-06-01T11:22:29.085Z,58.87
2018-06-01T11:24:56.487Z,59.07
2018-06-01T11:27:24.697Z,59.23
2018-06-01T11:29:52.084Z,60.47
2018-06-01T11:32:19.521Z,60.04
2018-06-01T11:34:46.847Z,59.21
2018-06-01T11:37:14.248Z,58.03
2018-06-01T11:39:41.643Z,58.80
2018-06-01T11:42:09.028Z,58.79
2018-06-01T11:44:36.411Z,58.22
2018-06-01T11:47:03.825Z,57.58
2018-06-01T11:49:31.201Z,56.16
2018-06-01T11:51:58.578Z,54.78
2018-06-01T11:54:25.971Z,53.90
2018-06-01T11:56:53.350Z,53.72
2018-06-01T11:59:20.883Z,54.09
2018-06-01T12:01:48.529Z,51.13
2018-06-01T12:04:15.921Z,47.82
2018-06-01T12:06:43.306Z,47.45
2018-06-01T12:09:10.691Z,48.21
2018-06-01T12:11:38.081Z,47.50
2018-06-01T12:14:05.475Z,47.11
2018-06-01T12:16:32.873Z,44.03
2018-06-01T12:19:00.268Z,43.41
2018-06-01T12:21:27.647Z,45.36
2018-06-01T12:23:55.042Z,43.84
2018-06-01T12:26:22.422Z,45.21
2018-06-01T12:28:49.818Z,47.56
2018-06-01T12:31:17.217Z,45.96
2018-06-01T12:33:44.615Z,45.71
2018-06-01T12:36:12.069Z,45.27
2018-06-01T12:38:39.455Z,43.63
2018-06-01T12:41:06.875Z,45.51
2018-06-01T12:43:34.268Z,47.73
2018-06-01T12:46:01.656Z,48.47
2018-06-01T12:48:29.050Z,51.02
2018-06-01T12:50:56.432Z,52.41
2018-06-01T12:53:23.824Z,52.84
2018-06-01T12:55:51.223Z,52.59
2018-06-01T12:58:18.788Z,52.91
2018-06-01T13:00:46.165Z,52.06
2018-06-01T13:03:13.555Z,52.72
2018-06-01T13:05:40.951Z,54.25
2018-06-01T13:08:08.357Z,54.24
2018-06-01T13:10:35.734Z,53.47
2018-06-01T13:13:03.145Z,53.34
2018-06-01T13:15:30.536Z,51.92
2018-06-01T13:17:57.954Z,49.88
2018-06-01T13:20:25.381Z,49.15
2018-06-01T13:22:52.715Z,48.41
2018-06-01T13:25:20.106Z,45.42
2018-06-01T13:27:47.495Z,42.41
2018-06-01T13:30:14.899Z,39.03
2018-06-01T13:32:42.279Z,37.54
2018-06-01T13:35:09.709Z,37.77
2018-06-01T13:37:37.091Z,37.21
2018-06-01T13:40:04.495Z,37.03
2018-06-01T13:42:31.934Z,34.95
2018-06-01T13:44:59.353Z,36.00
2018-06-01T13:47:26.731Z,40.42
2018-06-01T13:49:54.127Z,40.19
2018-06-01T13:52:21.525Z,39.80
2018-06-01T13:54:48.941Z,36.08
2018-06-01T13:57:16.344Z,36.06
2018-06-01T13:59:43.786Z,36.71
2018-06-01T14:02:11.161Z,38.64
2018-06-01T14:04:38.580Z,37.65
2018-06-01T14:07:06.050Z,38.47
2018-06-01T14:09:33.570Z,39.00
2018-06-01T14:12:00.959Z,41.54
2018-06-01T14:14:28.369Z,42.89
2018-06-01T14:16:55.799Z,40.93
2018-06-01T14:19:23.199Z,42.12
2018-06-01T14:21:50.633Z,41.30
2018-06-01T14:24:18.044Z,37.73
2018-06-01T14:26:45.444Z,36.94
2018-06-01T14:29:12.848Z,38.17
2018-06-01T14:31:40.249Z,38.25
2018-06-01T14:34:07.790Z,38.13
2018-06-01T14:36:35.229Z,39.85
2018-06-01T14:39:02.646Z,42.60
2018-06-01T14:41:30.051Z,40.05
2018-06-01T14:43:57.446Z,38.31
2018-06-01T14:46:24.887Z,39.95
2018-06-01T14:48:52.291Z,35.66
2018-06-01T14:51:19.676Z,37.46
2018-06-01T14:53:47.075Z,39.07
2018-06-01T14:56:14.551Z,39.84
2018-06-01T14:58:41.943Z,41.07
2018-06-01T15:01:09.334Z,38.66
2018-06-01T15:03:36.715Z,38.07
2018-06-01T15:06:04.123Z,41.10
2018-06-01T15:08:31.571Z,41.48
2018-06-01T15:10:58.904Z,41.65
2018-06-01T15:13:26.303Z,42.09
2018-06-01T15:15:53.888Z,50.72
2018-06-01T15:18:21.265Z,51.88
2018-06-01T15:20:53.417Z,54.28
2018-06-01T15:23:20.796Z,67.26
2018-06-01T15:25:48.248Z,80.27
2018-06-01T15:28:15.691Z,75.08
2018-06-01T15:30:43.086Z,76.22
2018-06-01T15:33:10.463Z,72.13
2018-06-01T15:35:37.865Z,68.89
2018-06-01T15:38:05.235Z,64.46
2018-06-01T15:40:32.631Z,66.64
2018-06-01T15:43:00.026Z,60.64
2018-06-01T15:45:27.424Z,52.81
2018-06-01T15:47:54.815Z,52.35
2018-06-01T15:50:22.213Z,49.86
2018-06-01T15:52:49.592Z,44.92
2018-06-01T15:55:16.979Z,44.74
2018-06-01T15:57:44.364Z,43.35
2018-06-01T16:00:11.773Z,44.25
2018-06-01T16:02:39.148Z,44.72
2018-06-01T16:05:06.547Z,46.46
2018-06-01T16:07:33.936Z,46.67
2018-06-01T16:10:01.343Z,46.91
2018-06-01T16:12:28.779Z,48.18
2018-06-01T16:14:56.111Z,46.90
2018-06-01T16:17:23.497Z,47.06
2018-06-01T16:19:50.895Z,47.72
2018-06-01T16:22:18.267Z,48.45
2018-06-01T16:24:45.687Z,50.31
2018-06-01T16:27:13.068Z,49.56
2018-06-01T16:29:40.847Z,49.98
2018-06-01T16:32:08.229Z,51.43
2018-06-01T16:34:35.632Z,50.58
2018-06-01T16:37:03.044Z,51.36
2018-06-01T16:39:30.432Z,50.80
2018-06-01T16:41:57.831Z,51.39
2018-06-01T16:44:25.283Z,51.48
2018-06-01T16:46:52.669Z,53.11
2018-06-01T16:49:21.827Z,53.43
2018-06-01T16:51:49.816Z,52.36
2018-06-01T16:54:17.244Z,52.06
2018-06-01T16:56:44.628Z,52.58
2018-06-01T16:59:12.020Z,52.76
2018-06-01T17:01:39.425Z,52.73
2018-06-01T17:04:06.828Z,52.88
2018-06-01T17:06:34.216Z,52.95
2018-06-01T17:09:01.619Z,53.09
2018-06-01T17:11:29.023Z,53.19
2018-06-01T17:13:56.508Z,53.25
2018-06-01T17:16:23.936Z,54.25
2018-06-01T17:18:51.337Z,55.04
2018-06-01T17:21:18.727Z,55.03
2018-06-01T17:23:46.121Z,55.85
2018-06-01T17:26:13.516Z,56.46
2018-06-01T17:28:40.905Z,56.61
2018-06-01T17:31:08.421Z,56.58
2018-06-01T17:33:35.809Z,56.23
2018-06-01T17:36:03.207Z,55.81
2018-06-01T17:38:30.603Z,56.06
2018-06-01T17:40:57.996Z,56.02
2018-06-01T17:43:25.487Z,56.11
2018-06-01T17:45:53.122Z,55.85
2018-06-01T17:48:20.500Z,56.10
2018-06-01T17:50:47.944Z,56.19
2018-06-01T17:53:15.336Z,56.37
2018-06-01T17:55:42.771Z,56.10
2018-06-01T17:58:10.262Z,56.27
2018-06-01T18:00:37.647Z,55.47
2018-06-01T18:03:05.040Z,55.95
2018-06-01T18:05:32.484Z,56.24
2018-06-01T18:07:59.888Z,55.37
2018-06-01T18:10:27.274Z,54.68
2018-06-01T18:12:54.693Z,55.76
2018-06-01T18:15:22.072Z,55.45
2018-06-01T18:17:54.396Z,55.74
2018-06-01T18:20:21.778Z,55.71
2018-06-01T18:22:50.247Z,55.56
2018-06-01T18:25:17.631Z,55.44
2018-06-01T18:27:45.085Z,56.13
2018-06-01T18:30:12.457Z,56.45
2018-06-01T18:32:39.862Z,56.84
2018-06-01T18:35:07.239Z,57.40
2018-06-01T18:37:34.627Z,56.90
2018-06-01T18:40:02.022Z,56.66
2018-06-01T18:42:29.391Z,57.05
2018-06-01T18:44:56.794Z,56.73
2018-06-01T18:47:24.176Z,56.90
2018-06-01T18:49:51.568Z,57.73
2018-06-01T18:52:18.959Z,58.92
2018-06-01T18:54:46.361Z,58.38
2018-06-01T18:57:13.739Z,57.96
2018-06-01T18:59:41.127Z,58.24
2018-06-01T19:02:08.543Z,57.79
2018-06-01T19:04:35.908Z,58.87
2018-06-01T19:07:03.291Z,60.03
2018-06-01T19:09:30.689Z,60.34
2018-06-01T19:11:58.064Z,60.35
2018-06-01T19:14:25.450Z,60.04
2018-06-01T19:16:52.834Z,60.80
2018-06-01T19:19:20.470Z,60.94
2018-06-01T19:21:47.881Z,60.85
2018-06-01T19:24:15.297Z,60.48
2018-06-01T19:26:42.668Z,60.97
2018-06-01T19:29:10.312Z,60.82
2018-06-01T19:31:37.699Z,61.01
2018-06-01T19:34:05.099Z,61.22
2018-06-01T19:36:32.498Z,62.57
2018-06-01T19:38:59.890Z,62.74
2018-06-01T19:41:27.283Z,62.29
2018-06-01T19:43:54.698Z,62.61
2018-06-01T19:46:22.141Z,63.30
2018-06-01T19:48:49.488Z,64.19
2018-06-01T19:51:16.881Z,64.22
2018-06-01T19:53:44.276Z,63.36
2018-06-01T19:56:11.664Z,63.55
2018-06-01T19:58:39.064Z,64.14
2018-06-01T20:01:06.454Z,64.56
2018-06-01T20:03:33.854Z,63.80
2018-06-01T20:06:01.247Z,63.81
2018-06-01T20:08:28.627Z,63.25
2018-06-01T20:10:56.012Z,63.62
2018-06-01T20:13:23.508Z,64.42
2018-06-01T20:15:50.787Z,64.69
2018-06-01T20:18:18.226Z,63.71
2018-06-01T20:20:45.664Z,65.15
2018-06-01T20:23:13.043Z,64.44
2018-06-01T20:25:40.431Z,64.57
2018-06-01T20:28:07.824Z,65.07
2018-06-01T20:30:35.214Z,65.11
2018-06-01T20:33:02.604Z,65.34
2018-06-01T20:35:30.000Z,65.33
2018-06-01T20:37:57.395Z,64.84
2018-06-01T20:40:24.790Z,65.48
2018-06-01T20:42:52.176Z,65.10
2018-06-01T20:45:19.579Z,65.10
2018-06-01T20:47:46.967Z,65.58
2018-06-01T20:50:14.361Z,65.21
2018-06-01T20:52:41.741Z,64.71
2018-06-01T20:55:09.137Z,65.01
2018-06-01T20:57:36.523Z,64.35
2018-06-01T21:00:03.919Z,64.70
2018-06-01T21:02:31.305Z,64.29
2018-06-01T21:04:58.698Z,65.64
2018-06-01T21:07:26.088Z,65.75
2018-06-01T21:09:53.482Z,65.91
2018-06-01T21:12:20.909Z,65.64
2018-06-01T21:14:48.323Z,66.74
2018-06-01T21:17:15.693Z,67.07
2018-06-01T21:19:43.090Z,66.70
2018-06-01T21:22:10.472Z,66.62
2018-06-01T21:24:37.863Z,66.21
2018-06-01T21:27:05.256Z,66.18
2018-06-01T21:29:32.661Z,66.03
2018-06-01T21:32:00.047Z,67.57
2018-06-01T21:34:27.441Z,67.05
2018-06-01T21:36:55.065Z,67.80
2018-06-01T21:39:22.456Z,67.50
2018-06-01T21:41:49.847Z,67.34
2018-06-01T21:44:17.232Z,67.14
2018-06-01T21:46:44.636Z,67.24
2018-06-01T21:49:12.032Z,68.05
2018-06-01T21:51:39.428Z,69.33
2018-06-01T21:54:06.814Z,68.66
2018-06-01T21:56:34.207Z,68.92
2018-06-01T21:59:01.590Z,68.66
2018-06-01T22:01:32.035Z,69.69
2018-06-01T22:03:59.448Z,69.12
2018-06-01T22:06:26.844Z,68.48
2018-06-01T22:08:54.244Z,69.27
2018-06-01T22:11:21.637Z,68.97
2018-06-01T22:13:49.064Z,68.62
2018-06-01T22:16:16.511Z,68.45
2018-06-01T22:18:43.849Z,68.33
2018-06-01T22:21:11.251Z,69.37
2018-06-01T22:23:38.623Z,69.80
2018-06-01T22:26:06.020Z,69.30
2018-06-01T22:28:33.410Z,69.72
2018-06-01T22:31:00.825Z,68.84
2018-06-01T22:33:28.208Z,68.12
2018-06-01T22:35:55.612Z,67.94
2018-06-01T22:38:23.004Z,66.99
2018-06-01T22:40:51.214Z,68.72
2018-06-01T22:43:18.599Z,68.07
2018-06-01T22:45:45.988Z,68.74
2018-06-01T22:48:13.379Z,68.64
2018-06-01T22:50:41.172Z,67.87
2018-06-01T22:53:08.570Z,68.63
2018-06-01T22:55:36.233Z,67.46
2018-06-01T22:58:04.572Z,66.55
2018-06-01T23:00:32.885Z,66.79
2018-06-01T23:03:00.285Z,67.55
2018-06-01T23:05:27.689Z,66.30
2018-06-01T23:07:55.088Z,66.58
2018-06-01T23:10:22.472Z,67.08
2018-06-01T23:12:49.868Z,66.51
2018-06-01T23:15:17.261Z,66.38
2018-06-01T23:17:44.652Z,67.25
2018-06-01T23:20:12.033Z,67.08
2018-06-01T23:22:39.431Z,66.93
2018-06-01T23:25:06.814Z,66.48
2018-06-01T23:27:34.203Z,67.27
2018-06-01T23:30:01.592Z,66.79
2018-06-01T23:32:29.124Z,66.55
2018-06-01T23:34:56.509Z,67.01
2018-06-01T23:37:23.916Z,67.02
2018-06-01T23:39:51.508Z,66.69
2018-06-01T23:42:18.920Z,66.33
2018-06-01T23:44:46.310Z,65.92
2018-06-01T23:47:13.745Z,66.65
2018-06-01T23:49:41.266Z,66.48
2018-06-01T23:52:08.652Z,66.68
2018-06-01T23:54:36.040Z,66.99
2018-06-01T23:57:03.433Z,66.53
2018-06-01T23:59:30.813Z,66.75
